createdAt,value
2023-06-04T00:00:13.438Z,11.50
2023-06-04T00:02:41.622Z,11.40
2023-06-04T00:05:09.665Z,11.50
2023-06-04T00:07:37.576Z,11.50
2023-06-04T00:10:06.322Z,11.50
2023-06-04T00:12:34.276Z,11.50
2023-06-04T00:15:02.374Z,11.40
2023-06-04T00:17:30.036Z,11.40
2023-06-04T00:19:57.816Z,11.40
2023-06-04T00:22:25.991Z,11.50
2023-06-04T00:24:53.690Z,11.50
2023-06-04T00:27:21.416Z,11.40
2023-06-04T00:29:49.101Z,11.40
2023-06-04T00:32:16.940Z,11.60
2023-06-04T00:34:44.677Z,11.60
2023-06-04T00:37:12.418Z,11.60
2023-06-04T00:39:40.091Z,11.50
2023-06-04T00:42:07.992Z,11.60
2023-06-04T00:44:37.481Z,11.70
2023-06-04T00:47:05.383Z,11.70
2023-06-04T00:49:33.034Z,11.80
2023-06-04T00:52:01.084Z,11.80
2023-06-04T00:54:30.122Z,11.80
2023-06-04T00:56:57.919Z,11.80
2023-06-04T00:59:25.736Z,11.80
2023-06-04T01:02:10.360Z,11.80
2023-06-04T01:04:45.166Z,11.80
2023-06-04T01:07:16.729Z,11.80
2023-06-04T01:09:46.298Z,11.60
2023-06-04T01:12:14.447Z,11.50
2023-06-04T01:14:42.946Z,11.50
2023-06-04T01:17:54.986Z,11.50
2023-06-04T01:20:25.435Z,11.50
2023-06-04T01:22:53.185Z,11.40
2023-06-04T01:25:38.584Z,11.40
2023-06-04T01:28:08.133Z,11.30
2023-06-04T01:30:44.312Z,11.30
2023-06-04T01:33:13.516Z,11.20
2023-06-04T01:35:41.564Z,11.30
2023-06-04T01:38:09.461Z,11.20
2023-06-04T01:40:37.368Z,11.10
2023-06-04T01:43:05.305Z,11.00
2023-06-04T01:45:33.074Z,11.10
2023-06-04T01:48:03.516Z,11.10
2023-06-04T01:50:31.928Z,11.10
2023-06-04T01:53:00.446Z,11.20
2023-06-04T01:55:30.816Z,11.30
2023-06-04T01:57:58.886Z,11.30
2023-06-04T02:00:27.789Z,11.30
2023-06-04T02:02:57.332Z,11.30
2023-06-04T02:05:25.392Z,11.30
2023-06-04T02:07:53.305Z,11.30
2023-06-04T02:10:21.744Z,11.30
2023-06-04T02:13:06.142Z,11.30
2023-06-04T02:15:34.025Z,11.20
2023-06-04T02:18:17.548Z,11.20
2023-06-04T02:20:46.688Z,11.30
2023-06-04T02:23:16.813Z,11.30
2023-06-04T02:25:47.734Z,11.30
2023-06-04T02:28:16.160Z,11.40
2023-06-04T02:30:46.864Z,11.40
2023-06-04T02:33:15.742Z,11.50
2023-06-04T02:35:43.718Z,11.50
2023-06-04T02:38:11.549Z,11.40
2023-06-04T02:40:40.115Z,11.40
2023-06-04T02:43:07.770Z,11.30
2023-06-04T02:45:35.634Z,11.40
2023-06-04T02:48:03.520Z,11.30
2023-06-04T02:50:31.201Z,11.30
2023-06-04T02:52:58.892Z,11.30
2023-06-04T02:55:26.651Z,11.20
2023-06-04T02:57:54.609Z,11.20
2023-06-04T03:00:22.382Z,11.20
2023-06-04T03:02:50.299Z,11.20
2023-06-04T03:05:19.558Z,11.20
2023-06-04T03:07:48.066Z,11.20
2023-06-04T03:10:17.774Z,11.20
2023-06-04T03:12:45.992Z,11.30
2023-06-04T03:15:13.782Z,11.40
2023-06-04T03:17:42.666Z,11.40
2023-06-04T03:20:10.640Z,11.50
2023-06-04T03:22:39.212Z,11.50
2023-06-04T03:25:07.424Z,11.70
2023-06-04T03:27:36.039Z,11.80
2023-06-04T03:30:06.166Z,11.90
2023-06-04T03:32:46.734Z,12.00
2023-06-04T03:35:15.787Z,12.20
2023-06-04T03:37:43.433Z,12.20
2023-06-04T03:40:11.656Z,12.40
2023-06-04T03:42:43.232Z,12.30
2023-06-04T03:45:12.644Z,12.40
2023-06-04T03:47:40.657Z,12.60
2023-06-04T03:50:09.882Z,12.50
2023-06-04T03:52:38.542Z,12.60
2023-06-04T03:55:08.348Z,12.60
2023-06-04T03:57:39.691Z,12.60
2023-06-04T04:00:10.379Z,12.80
2023-06-04T04:02:41.812Z,12.80
2023-06-04T04:05:16.266Z,12.90
2023-06-04T04:07:48.392Z,13.00
2023-06-04T04:10:19.091Z,13.00
2023-06-04T04:12:46.849Z,13.00
2023-06-04T04:15:14.920Z,13.20
2023-06-04T04:17:44.197Z,13.30
2023-06-04T04:20:12.656Z,13.30
2023-06-04T04:22:48.592Z,13.40
2023-06-04T04:25:18.841Z,13.40
2023-06-04T04:27:46.543Z,13.40
2023-06-04T04:30:14.887Z,13.40
2023-06-04T04:32:50.169Z,13.30
2023-06-04T04:35:25.038Z,13.30
2023-06-04T04:37:55.541Z,13.30
2023-06-04T04:40:24.494Z,13.30
2023-06-04T04:42:53.496Z,13.20
2023-06-04T04:45:22.210Z,13.10
2023-06-04T04:47:52.598Z,12.90
2023-06-04T04:50:20.557Z,12.60
2023-06-04T04:52:48.336Z,12.60
2023-06-04T04:55:17.387Z,12.70
2023-06-04T04:57:47.564Z,12.80
2023-06-04T05:00:17.022Z,12.90
2023-06-04T05:02:46.741Z,12.90
2023-06-04T05:05:15.089Z,12.90
2023-06-04T05:07:44.620Z,13.10
2023-06-04T05:10:14.041Z,13.20
2023-06-04T05:12:53.147Z,13.30
2023-06-04T05:15:21.957Z,13.20
2023-06-04T05:17:53.916Z,13.30
2023-06-04T05:20:24.052Z,13.30
2023-06-04T05:22:52.910Z,13.30
2023-06-04T05:25:22.859Z,13.20
2023-06-04T05:27:51.343Z,13.10
2023-06-04T05:30:20.968Z,13.30
2023-06-04T05:32:51.886Z,13.90
2023-06-04T05:35:23.502Z,14.70
2023-06-04T05:37:55.240Z,14.90
2023-06-04T05:40:27.313Z,15.10
2023-06-04T05:42:55.719Z,15.50
2023-06-04T05:45:23.492Z,15.30
2023-06-04T05:47:54.664Z,15.20
2023-06-04T05:50:22.691Z,15.10
2023-06-04T05:52:50.501Z,14.90
2023-06-04T05:55:18.465Z,15.00
2023-06-04T05:57:46.278Z,14.90
2023-06-04T06:00:14.864Z,14.90
2023-06-04T06:02:42.782Z,14.90
2023-06-04T06:05:23.041Z,14.90
2023-06-04T06:07:51.241Z,15.00
2023-06-04T06:10:19.108Z,15.10
2023-06-04T06:12:47.132Z,15.20
2023-06-04T06:15:14.831Z,15.40
2023-06-04T06:17:44.372Z,15.50
2023-06-04T06:20:13.084Z,15.60
2023-06-04T06:22:40.952Z,15.50
2023-06-04T06:25:09.878Z,15.50
2023-06-04T06:27:44.276Z,15.50
2023-06-04T06:30:14.286Z,15.50
2023-06-04T06:32:42.203Z,15.50
2023-06-04T06:35:10.157Z,15.60
2023-06-04T06:37:43.041Z,15.60
2023-06-04T06:40:11.885Z,15.50
2023-06-04T06:42:39.767Z,15.60
2023-06-04T06:45:07.983Z,15.70
2023-06-04T06:47:35.881Z,15.90
2023-06-04T06:50:04.070Z,16.00
2023-06-04T06:52:34.395Z,16.10
2023-06-04T06:55:03.370Z,16.20
2023-06-04T06:57:31.807Z,16.30
2023-06-04T06:59:59.565Z,16.20
2023-06-04T07:02:27.462Z,16.10
2023-06-04T07:04:55.256Z,16.50
2023-06-04T07:07:22.935Z,16.80
2023-06-04T07:09:51.427Z,17.20
2023-06-04T07:12:19.178Z,17.50
2023-06-04T07:14:47.052Z,17.20
2023-06-04T07:17:14.751Z,17.30
2023-06-04T07:19:42.704Z,17.70
2023-06-04T07:22:11.709Z,17.10
2023-06-04T07:24:39.386Z,17.00
2023-06-04T07:27:16.866Z,17.00
2023-06-04T07:29:48.166Z,16.90
2023-06-04T07:32:16.044Z,16.80
2023-06-04T07:34:43.863Z,16.90
2023-06-04T07:37:11.688Z,17.00
2023-06-04T07:39:40.289Z,17.20
2023-06-04T07:42:10.712Z,17.20
2023-06-04T07:44:39.550Z,17.20
2023-06-04T07:47:07.428Z,17.20
2023-06-04T07:49:35.149Z,17.40
2023-06-04T07:52:02.877Z,17.40
2023-06-04T07:54:30.563Z,17.70
2023-06-04T07:56:58.693Z,17.70
2023-06-04T07:59:26.388Z,17.80
2023-06-04T08:01:54.196Z,17.80
2023-06-04T08:04:22.283Z,18.10
2023-06-04T08:06:51.236Z,18.30
2023-06-04T08:09:19.525Z,18.20
2023-06-04T08:11:47.288Z,18.30
2023-06-04T08:14:15.211Z,18.60
2023-06-04T08:16:43.498Z,18.50
2023-06-04T08:19:24.847Z,18.60
2023-06-04T08:21:59.412Z,18.50
2023-06-04T08:24:40.839Z,18.70
2023-06-04T08:27:19.222Z,18.80
2023-06-04T08:29:56.957Z,18.80
2023-06-04T08:32:45.044Z,19.10
2023-06-04T08:35:19.667Z,19.30
2023-06-04T08:37:47.399Z,19.20
2023-06-04T08:40:15.205Z,19.00
2023-06-04T08:42:46.002Z,18.80
2023-06-04T08:45:15.480Z,18.60
2023-06-04T08:47:46.654Z,18.90
2023-06-04T08:50:18.608Z,18.90
2023-06-04T08:52:47.127Z,19.00
2023-06-04T08:55:15.540Z,19.00
2023-06-04T08:57:45.422Z,19.10
2023-06-04T09:00:13.902Z,19.20
2023-06-04T09:02:42.056Z,19.00
2023-06-04T09:05:10.642Z,19.20
2023-06-04T09:07:41.345Z,19.20
2023-06-04T09:10:13.383Z,19.50
2023-06-04T09:12:45.448Z,19.80
2023-06-04T09:15:13.474Z,19.70
2023-06-04T09:17:41.215Z,20.00
2023-06-04T09:20:12.100Z,20.10
2023-06-04T09:22:39.811Z,20.00
2023-06-04T09:25:19.877Z,20.00
2023-06-04T09:27:47.590Z,19.80
2023-06-04T09:30:15.418Z,19.50
2023-06-04T09:32:43.597Z,19.50
2023-06-04T09:35:20.868Z,19.50
2023-06-04T09:37:57.248Z,19.20
2023-06-04T09:40:35.941Z,19.30
2023-06-04T09:43:04.425Z,19.40
2023-06-04T09:45:33.725Z,19.70
2023-06-04T09:48:02.639Z,19.90
2023-06-04T09:50:43.051Z,19.90
2023-06-04T09:53:27.361Z,20.00
2023-06-04T09:56:02.987Z,19.80
2023-06-04T09:58:31.601Z,20.00
2023-06-04T10:01:01.542Z,20.20
2023-06-04T10:03:37.263Z,20.20
2023-06-04T10:06:24.595Z,20.20
2023-06-04T10:08:53.172Z,20.20
2023-06-04T10:11:28.369Z,20.30
2023-06-04T10:14:03.699Z,20.60
2023-06-04T10:16:35.053Z,20.70
2023-06-04T10:19:05.866Z,20.40
2023-06-04T10:21:36.446Z,21.10
2023-06-04T10:24:05.056Z,21.00
2023-06-04T10:26:36.494Z,21.00
2023-06-04T10:29:06.849Z,21.00
2023-06-04T10:31:36.308Z,20.90
2023-06-04T10:34:04.506Z,21.20
2023-06-04T10:36:32.329Z,21.30
2023-06-04T10:39:00.655Z,21.10
2023-06-04T10:41:28.574Z,21.20
2023-06-04T10:44:02.801Z,21.80
2023-06-04T10:46:42.203Z,22.40
2023-06-04T10:49:12.837Z,22.00
2023-06-04T10:51:40.664Z,22.40
2023-06-04T10:54:08.468Z,22.40
2023-06-04T10:56:37.884Z,22.10
2023-06-04T10:59:16.414Z,22.30
2023-06-04T11:01:45.108Z,22.70
2023-06-04T11:04:26.511Z,22.30
2023-06-04T11:07:04.812Z,22.50
2023-06-04T11:09:35.297Z,23.30
2023-06-04T11:12:05.668Z,23.00
2023-06-04T11:14:33.441Z,22.80
2023-06-04T11:17:15.038Z,22.60
2023-06-04T11:19:42.850Z,21.90
2023-06-04T11:22:13.813Z,21.70
2023-06-04T11:24:42.076Z,21.90
2023-06-04T11:27:15.258Z,22.20
2023-06-04T11:29:52.252Z,22.40
2023-06-04T11:32:24.635Z,22.30
2023-06-04T11:34:52.876Z,21.90
2023-06-04T11:37:20.542Z,22.40
2023-06-04T11:39:48.338Z,22.50
2023-06-04T11:42:16.459Z,22.10
2023-06-04T11:44:49.521Z,22.20
2023-06-04T11:47:17.287Z,22.00
2023-06-04T11:49:45.158Z,22.20
2023-06-04T11:52:13.549Z,22.50
2023-06-04T11:54:42.073Z,22.70
2023-06-04T11:57:09.823Z,22.60
2023-06-04T11:59:37.969Z,23.00
2023-06-04T12:02:08.028Z,22.80
2023-06-04T12:04:36.018Z,22.40
2023-06-04T12:07:06.814Z,22.60
2023-06-04T12:09:43.094Z,23.20
2023-06-04T12:12:22.309Z,23.00
2023-06-04T12:14:58.204Z,22.90
2023-06-04T12:17:26.012Z,22.60
2023-06-04T12:19:54.138Z,22.40
2023-06-04T12:22:22.277Z,22.50
2023-06-04T12:24:57.268Z,22.10
2023-06-04T12:27:29.109Z,22.90
2023-06-04T12:29:57.041Z,23.00
2023-06-04T12:32:24.664Z,22.70
2023-06-04T12:34:52.959Z,22.40
2023-06-04T12:37:21.652Z,22.30
2023-06-04T12:39:49.392Z,22.40
2023-06-04T12:42:17.199Z,22.70
2023-06-04T12:44:44.956Z,22.50
2023-06-04T12:47:12.838Z,22.70
2023-06-04T12:49:40.959Z,22.70
2023-06-04T12:52:08.716Z,22.60
2023-06-04T12:54:36.531Z,22.60
2023-06-04T12:57:04.334Z,22.80
2023-06-04T12:59:32.041Z,22.80
2023-06-04T13:01:59.821Z,22.60
2023-06-04T13:04:27.700Z,22.50
2023-06-04T13:07:00.513Z,22.80
2023-06-04T13:09:33.497Z,22.50
2023-06-04T13:12:01.164Z,22.50
2023-06-04T13:14:31.385Z,22.30
2023-06-04T13:17:02.153Z,21.70
2023-06-04T13:19:37.000Z,22.00
2023-06-04T13:22:04.915Z,22.30
2023-06-04T13:24:32.722Z,22.10
2023-06-04T13:27:00.631Z,22.10
2023-06-04T13:29:28.518Z,21.80
2023-06-04T13:31:56.252Z,22.40
2023-06-04T13:34:27.622Z,22.70
2023-06-04T13:36:56.693Z,22.80
2023-06-04T13:39:24.423Z,22.50
2023-06-04T13:41:52.161Z,22.00
2023-06-04T13:44:38.201Z,22.10
2023-06-04T13:47:06.164Z,22.00
2023-06-04T13:49:35.240Z,22.70
2023-06-04T13:52:03.275Z,22.60
2023-06-04T13:54:31.033Z,22.10
2023-06-04T13:56:58.822Z,22.10
2023-06-04T13:59:26.568Z,21.60
2023-06-04T14:01:54.226Z,21.70
2023-06-04T14:04:22.318Z,21.70
2023-06-04T14:06:50.021Z,21.90
2023-06-04T14:09:17.697Z,21.70
2023-06-04T14:11:48.470Z,21.90
2023-06-04T14:14:18.641Z,21.80
2023-06-04T14:16:47.413Z,22.00
2023-06-04T14:19:16.072Z,21.80
2023-06-04T14:21:45.321Z,22.10
2023-06-04T14:24:13.096Z,22.40
2023-06-04T14:26:40.796Z,22.10
2023-06-04T14:29:08.478Z,22.00
2023-06-04T14:31:36.141Z,22.30
2023-06-04T14:34:04.584Z,22.00
2023-06-04T14:36:32.589Z,22.20
2023-06-04T14:39:00.292Z,22.00
2023-06-04T14:41:31.625Z,22.40
2023-06-04T14:43:59.544Z,22.40
2023-06-04T14:46:27.639Z,22.10
2023-06-04T14:48:55.456Z,21.70
2023-06-04T14:51:25.979Z,21.70
2023-06-04T14:53:53.818Z,21.70
2023-06-04T14:56:21.456Z,21.70
2023-06-04T14:58:49.220Z,21.70
2023-06-04T15:01:17.964Z,21.70
2023-06-04T15:03:45.848Z,21.60
2023-06-04T15:06:19.405Z,21.60
2023-06-04T15:08:48.183Z,21.40
2023-06-04T15:11:16.751Z,21.70
2023-06-04T15:13:44.817Z,21.50
2023-06-04T15:16:12.599Z,21.50
2023-06-04T15:18:40.710Z,21.50
2023-06-04T15:21:09.530Z,21.50
2023-06-04T15:23:38.879Z,21.50
2023-06-04T15:26:06.550Z,21.50
2023-06-04T15:28:34.282Z,21.40
2023-06-04T15:31:02.163Z,21.40
2023-06-04T15:33:29.903Z,21.30
2023-06-04T15:35:57.722Z,21.30
2023-06-04T15:38:26.325Z,21.50
2023-06-04T15:40:54.116Z,21.40
2023-06-04T15:43:21.833Z,21.50
2023-06-04T15:45:49.726Z,21.50
2023-06-04T15:48:17.544Z,21.50
2023-06-04T15:50:45.398Z,21.40
2023-06-04T15:53:13.126Z,21.00
2023-06-04T15:55:40.792Z,21.10
2023-06-04T15:58:08.474Z,21.10
2023-06-04T16:00:36.242Z,21.00
2023-06-04T16:03:04.213Z,21.10
2023-06-04T16:05:31.910Z,21.00
2023-06-04T16:07:59.594Z,20.90
2023-06-04T16:10:27.288Z,20.90
2023-06-04T16:12:55.763Z,20.70
2023-06-04T16:15:23.571Z,20.70
2023-06-04T16:17:51.509Z,20.70
2023-06-04T16:20:20.227Z,20.70
2023-06-04T16:22:49.368Z,20.60
2023-06-04T16:25:18.680Z,20.80
2023-06-04T16:27:47.607Z,20.70
2023-06-04T16:30:15.615Z,20.60
2023-06-04T16:32:43.546Z,20.40
2023-06-04T16:35:12.107Z,20.20
2023-06-04T16:37:39.848Z,20.20
2023-06-04T16:40:08.963Z,20.10
2023-06-04T16:42:37.687Z,20.10
2023-06-04T16:45:05.965Z,20.00
2023-06-04T16:47:36.105Z,19.60
2023-06-04T16:50:05.529Z,19.70
2023-06-04T16:52:33.383Z,19.80
2023-06-04T16:55:01.521Z,19.60
2023-06-04T16:57:29.166Z,19.50
2023-06-04T16:59:56.829Z,19.50
2023-06-04T17:02:24.592Z,19.40
2023-06-04T17:04:52.559Z,19.10
2023-06-04T17:07:20.268Z,18.90
2023-06-04T17:09:48.804Z,18.80
2023-06-04T17:12:17.297Z,18.50
2023-06-04T17:14:47.905Z,18.30
2023-06-04T17:17:15.903Z,18.20
2023-06-04T17:19:45.576Z,17.90
2023-06-04T17:22:13.244Z,17.80
2023-06-04T17:24:41.143Z,17.60
2023-06-04T17:27:09.451Z,17.70
2023-06-04T17:29:37.708Z,17.70
2023-06-04T17:32:05.960Z,17.60
2023-06-04T17:34:33.643Z,17.30
2023-06-04T17:37:03.767Z,17.30
2023-06-04T17:39:33.700Z,17.30
2023-06-04T17:42:01.895Z,17.20
2023-06-04T17:44:29.584Z,17.10
2023-06-04T17:46:57.410Z,17.00
2023-06-04T17:49:25.353Z,17.10
2023-06-04T17:51:53.017Z,17.20
2023-06-04T17:54:20.792Z,17.20
2023-06-04T17:56:48.503Z,17.10
2023-06-04T17:59:16.355Z,17.20
2023-06-04T18:01:44.067Z,17.10
2023-06-04T18:04:11.833Z,17.20
2023-06-04T18:06:39.559Z,17.10
2023-06-04T18:09:07.475Z,17.10
2023-06-04T18:11:35.639Z,17.10
2023-06-04T18:14:06.130Z,16.80
2023-06-04T18:16:34.055Z,16.70
2023-06-04T18:19:01.768Z,16.80
2023-06-04T18:21:29.449Z,16.80
2023-06-04T18:23:57.994Z,16.70
2023-06-04T18:26:26.715Z,16.60
2023-06-04T18:28:54.502Z,16.60
2023-06-04T18:31:22.142Z,16.70
2023-06-04T18:33:54.087Z,16.70
2023-06-04T18:36:21.800Z,16.60
2023-06-04T18:38:49.661Z,16.60
2023-06-04T18:41:17.457Z,16.40
2023-06-04T18:43:45.366Z,16.50
2023-06-04T18:46:13.423Z,16.50
2023-06-04T18:48:41.715Z,16.50
2023-06-04T18:51:09.486Z,16.50
2023-06-04T18:53:37.524Z,16.50
2023-06-04T18:56:05.560Z,16.60
2023-06-04T18:58:33.748Z,16.60
2023-06-04T19:01:01.593Z,16.70
2023-06-04T19:03:29.486Z,16.70
2023-06-04T19:05:58.082Z,16.80
2023-06-04T19:08:25.810Z,16.90
2023-06-04T19:10:53.814Z,17.00
2023-06-04T19:13:21.619Z,17.10
2023-06-04T19:15:53.902Z,17.10
2023-06-04T19:18:22.706Z,17.20
2023-06-04T19:20:50.865Z,17.10
2023-06-04T19:23:19.495Z,17.10
2023-06-04T19:25:47.522Z,17.20
2023-06-04T19:28:17.785Z,17.20
2023-06-04T19:30:46.597Z,17.20
2023-06-04T19:33:14.629Z,17.10
2023-06-04T19:35:42.640Z,17.10
2023-06-04T19:38:11.692Z,17.10
2023-06-04T19:40:39.748Z,17.10
2023-06-04T19:43:08.352Z,17.10
2023-06-04T19:45:36.892Z,17.10
2023-06-04T19:48:04.944Z,17.00
2023-06-04T19:50:33.013Z,17.00
2023-06-04T19:53:01.157Z,17.00
2023-06-04T19:55:29.278Z,17.00
2023-06-04T19:57:57.653Z,16.90
2023-06-04T20:00:26.184Z,16.90
2023-06-04T20:02:54.017Z,16.70
2023-06-04T20:05:22.269Z,16.70
2023-06-04T20:07:50.206Z,16.80
2023-06-04T20:10:19.650Z,16.70
2023-06-04T20:12:47.483Z,16.60
2023-06-04T20:15:15.327Z,16.70
2023-06-04T20:17:43.119Z,16.70
2023-06-04T20:20:11.434Z,16.80
2023-06-04T20:22:39.429Z,16.90
2023-06-04T20:25:08.221Z,16.90
2023-06-04T20:27:38.445Z,16.90
2023-06-04T20:30:07.194Z,16.90
2023-06-04T20:32:35.162Z,16.90
2023-06-04T20:35:03.886Z,17.00
2023-06-04T20:37:31.960Z,16.90
2023-06-04T20:40:00.327Z,17.00
2023-06-04T20:42:28.118Z,17.00
2023-06-04T20:44:55.939Z,16.90
2023-06-04T20:47:23.878Z,17.00
2023-06-04T20:49:51.803Z,17.10
2023-06-04T20:52:19.545Z,16.90
2023-06-04T20:54:47.285Z,17.00
2023-06-04T20:57:15.260Z,17.00
2023-06-04T20:59:42.998Z,17.00
2023-06-04T21:02:10.782Z,17.00
2023-06-04T21:04:39.932Z,17.00
2023-06-04T21:07:07.910Z,17.00
2023-06-04T21:09:35.827Z,16.90
2023-06-04T21:12:04.352Z,16.90
2023-06-04T21:14:32.139Z,16.90
2023-06-04T21:16:59.970Z,16.90
2023-06-04T21:19:29.717Z,16.90
2023-06-04T21:21:58.280Z,16.90
2023-06-04T21:24:26.229Z,16.90
2023-06-04T21:26:53.966Z,17.00
2023-06-04T21:29:21.642Z,16.90
2023-06-04T21:31:49.365Z,16.90
2023-06-04T21:34:17.138Z,17.00
2023-06-04T21:36:44.901Z,16.80
2023-06-04T21:39:12.796Z,16.80
2023-06-04T21:41:40.791Z,16.70
2023-06-04T21:44:08.595Z,16.60
2023-06-04T21:46:36.935Z,16.60
2023-06-04T21:49:04.756Z,16.70
2023-06-04T21:51:32.673Z,16.60
2023-06-04T21:54:00.829Z,16.60
2023-06-04T21:56:28.558Z,16.50
2023-06-04T21:58:56.716Z,16.50
2023-06-04T22:01:24.541Z,16.50
2023-06-04T22:03:52.709Z,16.40
2023-06-04T22:06:21.239Z,16.30
2023-06-04T22:08:49.755Z,16.20
2023-06-04T22:11:18.555Z,16.30
2023-06-04T22:13:46.290Z,16.30
2023-06-04T22:16:14.195Z,16.20
2023-06-04T22:21:16.244Z,16.20
2023-06-04T22:23:44.380Z,16.10
2023-06-04T22:26:18.351Z,16.10
2023-06-04T22:28:49.593Z,16.10
2023-06-04T22:31:17.722Z,16.00
2023-06-04T22:33:45.582Z,16.00
2023-06-04T22:36:13.548Z,16.00
2023-06-04T22:38:41.213Z,15.90
2023-06-04T22:41:09.717Z,16.00
2023-06-04T22:43:38.027Z,16.00
2023-06-04T22:46:05.918Z,16.00
2023-06-04T22:48:33.642Z,16.00
2023-06-04T22:51:03.011Z,15.90
2023-06-04T22:53:30.831Z,15.90
2023-06-04T22:56:00.219Z,15.80
2023-06-04T22:58:28.202Z,15.90
2023-06-04T23:00:55.955Z,16.00
2023-06-04T23:03:26.632Z,15.90
2023-06-04T23:05:54.984Z,16.00
2023-06-04T23:08:23.323Z,16.00
2023-06-04T23:10:51.565Z,16.00
2023-06-04T23:13:19.694Z,16.10
2023-06-04T23:15:47.426Z,16.00
2023-06-04T23:18:15.577Z,16.10
2023-06-04T23:20:43.376Z,16.00
2023-06-04T23:23:11.732Z,15.90
2023-06-04T23:25:39.477Z,15.90
2023-06-04T23:28:07.405Z,15.90
2023-06-04T23:30:35.461Z,16.00
2023-06-04T23:33:04.072Z,16.10
2023-06-04T23:35:31.895Z,16.10
2023-06-04T23:37:59.538Z,16.00
2023-06-04T23:40:27.308Z,16.00
2023-06-04T23:42:55.056Z,16.10
2023-06-04T23:45:22.767Z,16.20
2023-06-04T23:47:50.509Z,16.20
2023-06-04T23:50:18.246Z,16.10
2023-06-04T23:52:46.025Z,16.10
2023-06-04T23:55:13.759Z,16.10
2023-06-04T23:57:41.546Z,16.00
